Henderson Executive Information

FAA: HND - ICAO: KHND

Henderson Executive (Airport) Location

State Nevada
County Clark
City Las Vegas
Henderson Executive (Airport) is 11 miles south of Las Vegas, NV.
Latitude 35-58-22.3000N
Longitude 115-08-04.0000W
Elevation 2,491ft

Henderson Executive METARs

METAR KHND 060756Z AUTO 15005KT 10SM CLR 11/M07 A3013 RMK AO2 SLP211 T01061072
Altimeter 30.13"
Temperature 10.6°C (51.1°F)
Wind 150° at 5KT
Clouds Skies are clear.
Visibility 10.0mi
Time observed: 2021-12-06T07:56:00Z

Henderson Executive (Airport) Details

Status Operational
Activation October 1970
Ownership Public
Usage Public
Chart LAS VEGAS
ATC on-site Yes
Beacon schedule sunset-sunrise
Beacon color clear green

Henderson Executive (Airport) Contacts

Owner CLARK COUNTY
Owner address P.O. BOX 11005, LAS VEGAS, NV 89111
Owner phone 702-261-4802
Manager JAMES LASSITER-MGR OF SECURITY
Manager address 3001 ST ROSE PARKWAY, HENDERSON, NV 89052
Manager phone 702-616-5055

Henderson Executive Radio Frequencies

Henderson Executive (Airport) Radio Frequencies

UNICOM 122.95
Common traffic advisory frequency (CTAF) 125.1